createdAt,value
2018-12-17T00:02:14.741Z,0.90
2018-12-17T00:07:19.853Z,0.90
2018-12-17T00:12:24.977Z,0.80
2018-12-17T00:17:28.477Z,0.80
2018-12-17T00:22:33.389Z,0.80
2018-12-17T00:27:37.093Z,0.80
2018-12-17T00:32:42.264Z,0.70
2018-12-17T00:37:47.183Z,0.60
2018-12-17T00:42:51.670Z,0.70
2018-12-17T00:47:56.722Z,0.70
2018-12-17T00:53:00.409Z,0.70
2018-12-17T00:58:05.074Z,0.70
2018-12-17T01:03:09.687Z,0.70
2018-12-17T01:08:14.416Z,0.70
2018-12-17T01:13:19.386Z,0.80
2018-12-17T01:18:24.366Z,0.70
2018-12-17T01:23:27.983Z,0.80
2018-12-17T01:28:33.489Z,0.70
2018-12-17T01:33:38.443Z,0.80
2018-12-17T01:38:42.265Z,0.80
2018-12-17T01:43:46.878Z,0.80
2018-12-17T01:48:52.385Z,0.80
2018-12-17T01:53:57.293Z,0.70
2018-12-17T01:59:02.438Z,0.70
2018-12-17T02:04:06.091Z,0.70
2018-12-17T02:09:11.258Z,0.80
2018-12-17T02:14:15.663Z,0.90
2018-12-17T02:19:19.259Z,0.90
2018-12-17T02:24:23.764Z,0.90
2018-12-17T02:29:28.368Z,1.00
2018-12-17T02:34:33.100Z,0.90
2018-12-17T02:39:38.243Z,1.00
2018-12-17T02:44:41.731Z,0.90
2018-12-17T02:49:46.352Z,0.90
2018-12-17T02:54:51.459Z,0.90
2018-12-17T02:59:55.271Z,0.90
2018-12-17T03:05:00.337Z,0.90
2018-12-17T03:10:06.125Z,0.90
2018-12-17T03:15:09.968Z,0.80
2018-12-17T03:20:13.885Z,0.90
2018-12-17T03:25:17.384Z,1.00
2018-12-17T03:30:21.988Z,1.00
2018-12-17T03:35:25.739Z,1.00
2018-12-17T03:40:30.682Z,1.00
2018-12-17T03:45:34.893Z,1.10
2018-12-17T03:50:39.304Z,1.10
2018-12-17T03:55:44.093Z,1.10
2018-12-17T04:00:48.902Z,1.00
2018-12-17T04:05:52.482Z,1.00
2018-12-17T04:10:56.070Z,0.90
2018-12-17T04:16:01.008Z,1.00
2018-12-17T04:21:06.019Z,0.90
2018-12-17T04:26:10.723Z,0.90
2018-12-17T04:31:14.264Z,0.90
2018-12-17T04:36:18.894Z,0.90
2018-12-17T04:41:23.596Z,0.90
2018-12-17T04:46:28.600Z,1.00
2018-12-17T04:51:33.193Z,0.90
2018-12-17T04:56:38.209Z,0.90
2018-12-17T05:01:42.374Z,0.90
2018-12-17T05:06:47.361Z,0.90
2018-12-17T05:11:52.078Z,0.90
2018-12-17T05:16:56.656Z,0.90
2018-12-17T05:22:01.833Z,0.80
2018-12-17T05:27:06.729Z,0.90
2018-12-17T05:32:11.982Z,0.90
2018-12-17T05:37:16.645Z,0.90
2018-12-17T05:42:21.659Z,0.90
2018-12-17T05:47:26.029Z,0.80
2018-12-17T05:52:30.548Z,0.90
2018-12-17T05:57:36.816Z,0.90
2018-12-17T06:02:42.304Z,0.90
2018-12-17T06:07:46.913Z,0.90
2018-12-17T06:12:51.340Z,0.80
2018-12-17T06:17:55.973Z,0.80
2018-12-17T06:23:00.898Z,0.80
2018-12-17T06:28:05.625Z,0.80
2018-12-17T06:33:15.687Z,0.80
2018-12-17T06:38:16.350Z,0.80
2018-12-17T06:43:20.359Z,0.80
2018-12-17T06:48:25.364Z,0.80
2018-12-17T06:53:30.848Z,0.80
2018-12-17T06:58:34.384Z,0.80
2018-12-17T07:03:39.123Z,0.90
2018-12-17T07:08:42.658Z,0.90
2018-12-17T07:13:47.830Z,0.80
2018-12-17T07:18:52.692Z,0.90
2018-12-17T07:23:58.953Z,0.90
2018-12-17T07:29:04.345Z,0.80
2018-12-17T07:34:08.273Z,0.80
2018-12-17T07:39:12.001Z,0.90
2018-12-17T07:44:16.581Z,1.00
2018-12-17T07:49:20.906Z,1.10
2018-12-17T07:54:25.106Z,1.10
2018-12-17T07:59:29.793Z,1.20
2018-12-17T08:04:33.205Z,1.20
2018-12-17T08:09:37.984Z,1.30
2018-12-17T08:14:42.394Z,1.40
2018-12-17T08:19:46.104Z,1.50
2018-12-17T08:24:50.989Z,1.50
2018-12-17T08:29:54.749Z,1.60
2018-12-17T08:34:59.320Z,1.60
2018-12-17T08:40:03.894Z,1.60
2018-12-17T08:45:07.508Z,1.60
2018-12-17T08:50:10.993Z,1.80
2018-12-17T08:55:14.599Z,1.90
2018-12-17T09:00:18.713Z,2.00
2018-12-17T09:05:22.810Z,2.10
2018-12-17T09:10:27.119Z,2.10
2018-12-17T09:15:30.997Z,2.20
2018-12-17T09:20:35.669Z,2.20
2018-12-17T09:25:40.286Z,2.20
2018-12-17T09:30:43.973Z,2.30
2018-12-17T09:35:48.562Z,2.30
2018-12-17T09:40:52.337Z,2.40
2018-12-17T09:45:56.935Z,2.50
2018-12-17T09:51:00.541Z,2.60
2018-12-17T09:56:05.517Z,2.70
2018-12-17T10:01:10.078Z,2.80
2018-12-17T10:06:14.693Z,3.20
2018-12-17T10:11:19.353Z,3.20
2018-12-17T10:16:24.165Z,3.10
2018-12-17T10:21:28.908Z,2.90
2018-12-17T10:26:33.958Z,2.80
2018-12-17T10:31:38.464Z,2.80
2018-12-17T10:36:43.417Z,2.80
2018-12-17T10:41:48.000Z,2.90
2018-12-17T10:46:52.577Z,2.80
2018-12-17T10:51:56.263Z,2.90
2018-12-17T10:57:00.967Z,3.00
2018-12-17T11:02:07.836Z,3.00
2018-12-17T11:07:12.143Z,3.00
2018-12-17T11:12:16.846Z,3.20
2018-12-17T11:17:21.586Z,3.40
2018-12-17T11:22:27.701Z,3.50
2018-12-17T11:27:32.769Z,3.70
2018-12-17T11:32:38.405Z,3.80
2018-12-17T11:37:43.229Z,4.00
2018-12-17T11:42:47.863Z,4.30
2018-12-17T11:47:56.213Z,4.20
2018-12-17T11:53:01.188Z,4.20
2018-12-17T11:58:09.332Z,4.10
2018-12-17T12:03:14.251Z,4.10
2018-12-17T12:08:19.064Z,4.30
2018-12-17T12:13:23.954Z,4.30
2018-12-17T12:18:28.561Z,4.20
2018-12-17T12:23:32.041Z,4.90
2018-12-17T12:28:36.567Z,5.30
2018-12-17T12:33:40.976Z,5.40
2018-12-17T12:38:44.616Z,5.10
2018-12-17T12:43:49.523Z,5.20
2018-12-17T12:48:54.088Z,4.90
2018-12-17T12:53:58.892Z,4.80
2018-12-17T12:59:09.414Z,4.50
2018-12-17T13:04:13.141Z,4.40
2018-12-17T13:09:19.502Z,4.30
2018-12-17T13:14:24.632Z,4.10
2018-12-17T13:19:28.167Z,4.10
2018-12-17T13:24:43.251Z,4.20
2018-12-17T13:29:48.055Z,4.10
2018-12-17T13:34:52.365Z,4.00
2018-12-17T13:39:57.359Z,4.10
2018-12-17T13:45:04.459Z,4.40
2018-12-17T13:50:30.236Z,4.40
2018-12-17T13:55:36.120Z,4.30
2018-12-17T14:00:40.745Z,4.40
2018-12-17T14:05:45.079Z,4.40
2018-12-17T14:10:51.357Z,4.30
2018-12-17T14:15:56.696Z,4.40
2018-12-17T14:21:05.997Z,4.30
2018-12-17T14:26:09.500Z,4.30
2018-12-17T14:31:13.876Z,4.40
2018-12-17T14:36:18.542Z,4.40
2018-12-17T14:41:23.744Z,4.30
2018-12-17T14:46:29.762Z,4.30
2018-12-17T14:51:33.430Z,4.00
2018-12-17T14:56:38.543Z,4.00
2018-12-17T15:01:43.760Z,4.00
2018-12-17T15:06:48.618Z,4.00
2018-12-17T15:11:53.571Z,3.90
2018-12-17T15:16:58.462Z,3.80
2018-12-17T15:22:03.205Z,3.80
2018-12-17T15:27:08.900Z,3.80
2018-12-17T15:32:13.843Z,3.70
2018-12-17T15:37:18.569Z,3.90
2018-12-17T15:42:23.596Z,4.00
2018-12-17T15:47:28.411Z,4.10
2018-12-17T15:52:33.390Z,4.30
2018-12-17T15:57:37.513Z,4.30
2018-12-17T16:02:42.394Z,4.20
2018-12-17T16:07:46.891Z,4.20
2018-12-17T16:12:51.590Z,4.20
2018-12-17T16:17:56.368Z,4.20
2018-12-17T16:22:59.982Z,4.10
2018-12-17T16:28:05.131Z,4.20
2018-12-17T16:33:08.740Z,4.30
2018-12-17T16:38:13.695Z,4.30
2018-12-17T16:43:18.739Z,4.30
2018-12-17T16:48:23.735Z,4.30
2018-12-17T16:53:28.779Z,4.30
2018-12-17T16:58:33.853Z,4.30
2018-12-17T17:03:38.859Z,4.20
2018-12-17T17:08:43.173Z,4.10
2018-12-17T17:13:47.785Z,4.10
2018-12-17T17:18:52.624Z,4.00
2018-12-17T17:23:57.446Z,3.80
2018-12-17T17:29:02.716Z,4.00
2018-12-17T17:34:06.425Z,4.10
2018-12-17T17:39:12.030Z,4.10
2018-12-17T17:44:16.205Z,4.10
2018-12-17T17:49:20.815Z,4.20
2018-12-17T17:54:27.338Z,4.20
2018-12-17T17:59:32.452Z,4.10
2018-12-17T18:04:36.391Z,4.10
2018-12-17T18:09:40.984Z,4.20
2018-12-17T18:14:45.818Z,4.20
2018-12-17T18:19:50.913Z,4.20
2018-12-17T18:24:55.863Z,4.30
2018-12-17T18:29:59.660Z,4.30
2018-12-17T18:35:04.040Z,4.10
2018-12-17T18:40:10.310Z,4.00
2018-12-17T18:45:17.917Z,3.90
2018-12-17T18:50:22.485Z,3.80
2018-12-17T18:55:26.879Z,3.60
2018-12-17T19:00:31.900Z,3.60
2018-12-17T19:05:36.965Z,3.50
2018-12-17T19:10:47.166Z,3.20
2018-12-17T19:15:52.218Z,3.20
2018-12-17T19:20:56.051Z,3.00
2018-12-17T19:25:59.726Z,2.80
2018-12-17T19:31:04.192Z,2.60
2018-12-17T19:36:08.637Z,2.90
2018-12-17T19:41:13.985Z,2.70
2018-12-17T19:46:19.128Z,2.70
2018-12-17T19:51:23.812Z,2.70
2018-12-17T19:56:29.582Z,2.70
2018-12-17T20:01:34.670Z,2.70
2018-12-17T20:06:39.767Z,2.80
2018-12-17T20:11:43.499Z,2.70
2018-12-17T20:16:47.909Z,2.70
2018-12-17T20:21:51.519Z,2.80
2018-12-17T20:26:56.595Z,2.70
2018-12-17T20:32:00.379Z,2.60
2018-12-17T20:37:05.521Z,2.60
2018-12-17T20:42:09.246Z,2.60
2018-12-17T20:47:14.340Z,2.50
2018-12-17T20:52:18.193Z,2.60
2018-12-17T20:57:22.803Z,2.70
2018-12-17T21:02:26.604Z,2.70
2018-12-17T21:07:31.713Z,2.70
2018-12-17T21:12:36.936Z,2.70
2018-12-17T21:17:42.079Z,2.70
2018-12-17T21:22:47.434Z,2.70
2018-12-17T21:27:52.676Z,2.80
2018-12-17T21:32:56.251Z,2.70
2018-12-17T21:38:00.821Z,2.60
2018-12-17T21:43:04.615Z,2.60
2018-12-17T21:48:10.429Z,2.50
2018-12-17T21:53:15.434Z,2.50
2018-12-17T21:58:20.540Z,2.60
2018-12-17T22:03:24.044Z,2.40
2018-12-17T22:08:27.692Z,2.40
2018-12-17T22:13:32.759Z,2.40
2018-12-17T22:18:36.389Z,2.40
2018-12-17T22:23:41.490Z,2.40
2018-12-17T22:28:46.077Z,2.40
2018-12-17T22:33:51.169Z,2.30
2018-12-17T22:38:55.069Z,2.30
2018-12-17T22:43:58.803Z,2.40
2018-12-17T22:49:02.788Z,2.40
2018-12-17T22:54:07.964Z,2.50
2018-12-17T22:59:13.474Z,2.60
2018-12-17T23:04:17.091Z,2.60
2018-12-17T23:09:20.230Z,2.60
2018-12-17T23:14:36.376Z,2.60
2018-12-17T23:19:42.200Z,2.50
2018-12-17T23:24:47.320Z,2.30
2018-12-17T23:29:51.836Z,2.40
2018-12-17T23:34:55.272Z,2.40
2018-12-17T23:39:59.667Z,2.30
2018-12-17T23:45:05.051Z,2.30
2018-12-17T23:50:09.181Z,2.20
2018-12-17T23:55:12.777Z,2.20
